CPX401 Details

Departure: Seattle-Tacoma International Airport (KSEA)
Arrival: Miami International Airport (KMIA)
Route: SEA NORMY J90 MWH DLN DDY BFF SGF MEM MGM SZW PLYER JUULI SSCOT5


Current Weather Information
KSEA 212315Z 04008KT 10SM SCT028 BKN100 16/09 A2978 RMK AO2 T01560089
KMIA 212253Z 12012KT 10SM FEW040 FEW060 FEW250 29/20 A2993 RMK AO2 SLP136 T02890200